Aérodrome :
LOGIN :

S'inscrire | Disclaimer

   EN    FR    IT 

 










Légende :    VFR   VFR Marginal   IFR   IFR Intensif   IFR Très Intensif
Visi : 
Plafond : 
>= 8 km
>= 3000ft
5 à 8 km
1000 à 3000 ft
1500m à 5 km
500 à 1000 ft
800 à 1500m
200 à 500 ft
< 800m
< 200 ft
Symboles :   Orages  Brouillard  Fortes neiges  Fortes précipitations  Vent > 20 kt
SIGMETs :   Divers  Orages  Givrage  Turbulence  Onde Orograph.  Cendres Volcan.







- Altitude de l'aérodrome : 425 ft
- Code IATA : DTM


EDLW - Dortmund

DERNIER METAR :
  • 270720Z 25006KT 220V310 9999 FEW010 BKN015 14/12 Q1009

METARs EXPIRÉS :
  • 270650Z 24007KT 220V280 9999 FEW010 BKN043 13/12 Q1009
  • 270620Z 25006KT 9999 FEW007 BKN034 13/12 Q1009
  • 270550Z 24005KT 9999 FEW010 BKN026 13/12 Q1009
  • 270520Z 25003KT 220V280 9999 OVC017 13/12 Q1009
  • 270450Z VRB02KT 9999 -RA FEW003 SCT011 OVC014 12/12 Q1008

TAF COR TAF EDLW
Valide du 27 à 06h jusqu'au 28 à 06h UTC


270550Z 2706/2806 24004KT 9999 SCT010 BKN025
PROB30
TEMPO 2706/2708 BKN009
BECMG 2706/2709 26009KT
BECMG 2718/2722 22003KT
Pas de NOTAMs connus pour ce terrain.



MET'MAP, la Météo Aéronautique d'un coup d'oeil ! - Copyright ORBIFLY Décembre 2007 - Disclaimer

ORBIFLY MET'MAP TEAM :

Programmation & Développement : Alexandra Zaïnal
Conception & Développement : Baudouin d'Aumeries
Co-Programmation & Développement : Marc-Olivier Méhu
Soutien technique & logistique : Manuel Goepfert

Contact : metmap@orbifly.com




SOURCES & CREDITS :

   NOAA